sensor_id;sensor_type;location;lat;lon;timestamp;pressure;altitude;pressure_sealevel;temperature;humidity
70815;BME280;58428;49.478;10.986;2023-05-12T00:01:10;98244.25;;;11.55;100.00
70815;BME280;58428;49.478;10.986;2023-05-12T00:03:35;98244.72;;;11.57;100.00
70815;BME280;58428;49.478;10.986;2023-05-12T00:06:02;98243.78;;;11.53;100.00
70815;BME280;58428;49.478;10.986;2023-05-12T00:08:30;98239.53;;;11.52;100.00
70815;BME280;58428;49.478;10.986;2023-05-12T00:10:56;98250.81;;;11.54;100.00
70815;BME280;58428;49.478;10.986;2023-05-12T00:13:21;98240.19;;;11.49;100.00
70815;BME280;58428;49.478;10.986;2023-05-12T00:15:49;98245.47;;;11.45;100.00
70815;BME280;58428;49.478;10.986;2023-05-12T00:18:15;98240.41;;;11.44;100.00
70815;BME280;58428;49.478;10.986;2023-05-12T00:20:41;98233.53;;;11.46;100.00
70815;BME280;58428;49.478;10.986;2023-05-12T00:23:08;98239.09;;;11.41;100.00
70815;BME280;58428;49.478;10.986;2023-05-12T00:25:33;98235.28;;;11.42;100.00
70815;BME280;58428;49.478;10.986;2023-05-12T00:28:00;98230.53;;;11.39;100.00
70815;BME280;58428;49.478;10.986;2023-05-12T00:30:25;98232.56;;;11.42;100.00
70815;BME280;58428;49.478;10.986;2023-05-12T00:32:52;98236.22;;;11.46;100.00
70815;BME280;58428;49.478;10.986;2023-05-12T00:35:17;98243.75;;;11.41;100.00
70815;BME280;58428;49.478;10.986;2023-05-12T00:37:43;98246.66;;;11.36;100.00
70815;BME280;58428;49.478;10.986;2023-05-12T00:40:09;98241.72;;;11.38;100.00
70815;BME280;58428;49.478;10.986;2023-05-12T00:42:34;98245.34;;;11.42;100.00
70815;BME280;58428;49.478;10.986;2023-05-12T00:45:00;98235.28;;;11.42;100.00
70815;BME280;58428;49.478;10.986;2023-05-12T00:47:26;98232.91;;;11.41;100.00
70815;BME280;58428;49.478;10.986;2023-05-12T00:49:52;98235.28;;;11.42;100.00
70815;BME280;58428;49.478;10.986;2023-05-12T00:52:18;98231.66;;;11.38;100.00
70815;BME280;58428;49.478;10.986;2023-05-12T00:54:43;98236.81;;;11.32;100.00
70815;BME280;58428;49.478;10.986;2023-05-12T00:57:10;98242.56;;;11.30;100.00
70815;BME280;58428;49.478;10.986;2023-05-12T00:59:35;98237.16;;;11.30;100.00
70815;BME280;58428;49.478;10.986;2023-05-12T01:02:02;98234.69;;;11.25;100.00
70815;BME280;58428;49.478;10.986;2023-05-12T01:04:28;98240.97;;;11.17;100.00
70815;BME280;58428;49.478;10.986;2023-05-12T01:06:59;98234.34;;;11.27;100.00
70815;BME280;58428;49.478;10.986;2023-05-12T01:09:27;98227.00;;;11.27;100.00
70815;BME280;58428;49.478;10.986;2023-05-12T01:11:53;98231.28;;;11.28;100.00
70815;BME280;58428;49.478;10.986;2023-05-12T01:14:18;98233.22;;;11.28;100.00
70815;BME280;58428;49.478;10.986;2023-05-12T01:16:50;98224.19;;;11.36;100.00
70815;BME280;58428;49.478;10.986;2023-05-12T01:19:46;98224.78;;;11.41;100.00
70815;BME280;58428;49.478;10.986;2023-05-12T01:22:12;98217.78;;;11.40;100.00
70815;BME280;58428;49.478;10.986;2023-05-12T01:27:19;98215.72;;;11.25;100.00
70815;BME280;58428;49.478;10.986;2023-05-12T01:29:46;98226.31;;;11.30;100.00
70815;BME280;58428;49.478;10.986;2023-05-12T01:32:14;98219.34;;;11.29;100.00
70815;BME280;58428;49.478;10.986;2023-05-12T01:34:41;98217.41;;;11.30;100.00
70815;BME280;58428;49.478;10.986;2023-05-12T01:37:09;98229.13;;;11.22;100.00
70815;BME280;58428;49.478;10.986;2023-05-12T01:39:36;98225.75;;;11.25;100.00
70815;BME280;58428;49.478;10.986;2023-05-12T01:42:02;98227.19;;;11.22;100.00
70815;BME280;58428;49.478;10.986;2023-05-12T01:44:28;98218.63;;;11.20;100.00
70815;BME280;58428;49.478;10.986;2023-05-12T01:46:53;98221.72;;;11.31;100.00
70815;BME280;58428;49.478;10.986;2023-05-12T01:49:19;98219.22;;;11.38;100.00
70815;BME280;58428;49.478;10.986;2023-05-12T01:51:44;98224.97;;;11.36;100.00
70815;BME280;58428;49.478;10.986;2023-05-12T01:54:09;98216.66;;;11.41;100.00
70815;BME280;58428;49.478;10.986;2023-05-12T01:56:35;98214.16;;;11.36;100.00
70815;BME280;58428;49.478;10.986;2023-05-12T01:59:00;98216.63;;;11.29;100.00
70815;BME280;58428;49.478;10.986;2023-05-12T02:01:26;98219.66;;;11.28;100.00
70815;BME280;58428;49.478;10.986;2023-05-12T02:03:56;98221.25;;;11.29;100.00
70815;BME280;58428;49.478;10.986;2023-05-12T02:06:21;98212.69;;;11.27;100.00
70815;BME280;58428;49.478;10.986;2023-05-12T02:08:47;98209.53;;;11.25;100.00
70815;BME280;58428;49.478;10.986;2023-05-12T02:11:12;98214.47;;;11.23;100.00
70815;BME280;58428;49.478;10.986;2023-05-12T02:13:41;98221.78;;;11.22;100.00
70815;BME280;58428;49.478;10.986;2023-05-12T02:16:10;98208.69;;;11.24;100.00
70815;BME280;58428;49.478;10.986;2023-05-12T02:18:36;98218.75;;;11.24;100.00
70815;BME280;58428;49.478;10.986;2023-05-12T02:21:02;98212.31;;;11.28;100.00
70815;BME280;58428;49.478;10.986;2023-05-12T02:23:31;98211.88;;;11.26;100.00
70815;BME280;58428;49.478;10.986;2023-05-12T02:25:59;98209.41;;;11.33;100.00
70815;BME280;58428;49.478;10.986;2023-05-12T02:28:26;98209.28;;;11.30;100.00
70815;BME280;58428;49.478;10.986;2023-05-12T02:30:55;98210.75;;;11.27;100.00
70815;BME280;58428;49.478;10.986;2023-05-12T02:33:24;98212.09;;;11.21;100.00
70815;BME280;58428;49.478;10.986;2023-05-12T02:35:52;98216.03;;;11.24;100.00
70815;BME280;58428;49.478;10.986;2023-05-12T02:38:22;98214.81;;;11.21;100.00
70815;BME280;58428;49.478;10.986;2023-05-12T02:40:49;98217.84;;;11.20;100.00
70815;BME280;58428;49.478;10.986;2023-05-12T02:43:16;98216.28;;;11.19;100.00
70815;BME280;58428;49.478;10.986;2023-05-12T02:45:44;98217.63;;;11.25;100.00
70815;BME280;58428;49.478;10.986;2023-05-12T02:48:11;98212.78;;;11.30;100.00
70815;BME280;58428;49.478;10.986;2023-05-12T02:50:37;98209.75;;;11.32;100.00
70815;BME280;58428;49.478;10.986;2023-05-12T02:53:03;98206.91;;;11.28;100.00
70815;BME280;58428;49.478;10.986;2023-05-12T02:55:28;98212.00;;;11.30;100.00
70815;BME280;58428;49.478;10.986;2023-05-12T02:57:56;98209.53;;;11.37;100.00
70815;BME280;58428;49.478;10.986;2023-05-12T03:00:21;98209.22;;;11.38;100.00
70815;BME280;58428;49.478;10.986;2023-05-12T03:02:48;98209.31;;;11.41;100.00
70815;BME280;58428;49.478;10.986;2023-05-12T03:05:13;98198.97;;;11.43;100.00
70815;BME280;58428;49.478;10.986;2023-05-12T03:07:39;98207.63;;;11.37;100.00
70815;BME280;58428;49.478;10.986;2023-05-12T03:10:05;98194.97;;;11.29;100.00
70815;BME280;58428;49.478;10.986;2023-05-12T03:12:30;98198.91;;;11.32;100.00
70815;BME280;58428;49.478;10.986;2023-05-12T03:14:56;98198.72;;;11.37;100.00
70815;BME280;58428;49.478;10.986;2023-05-12T03:17:21;98193.50;;;11.32;100.00
70815;BME280;58428;49.478;10.986;2023-05-12T03:19:47;98199.78;;;11.24;100.00
70815;BME280;58428;49.478;10.986;2023-05-12T03:22:13;98202.63;;;11.27;100.00
70815;BME280;58428;49.478;10.986;2023-05-12T03:24:39;98200.06;;;11.31;100.00
70815;BME280;58428;49.478;10.986;2023-05-12T03:27:04;98202.06;;;11.34;100.00
70815;BME280;58428;49.478;10.986;2023-05-12T03:29:30;98200.59;;;11.36;100.00
70815;BME280;58428;49.478;10.986;2023-05-12T03:31:56;98200.97;;;11.35;100.00
70815;BME280;58428;49.478;10.986;2023-05-12T03:34:21;98202.75;;;11.31;100.00
70815;BME280;58428;49.478;10.986;2023-05-12T03:36:47;98206.25;;;11.31;100.00
70815;BME280;58428;49.478;10.986;2023-05-12T03:39:12;98202.31;;;11.29;100.00
70815;BME280;58428;49.478;10.986;2023-05-12T03:41:38;98199.13;;;11.27;100.00
70815;BME280;58428;49.478;10.986;2023-05-12T03:44:04;98199.91;;;11.27;100.00
70815;BME280;58428;49.478;10.986;2023-05-12T03:46:33;98201.41;;;11.25;100.00
70815;BME280;58428;49.478;10.986;2023-05-12T03:48:59;98199.47;;;11.25;100.00
70815;BME280;58428;49.478;10.986;2023-05-12T03:51:26;98197.41;;;11.22;100.00
70815;BME280;58428;49.478;10.986;2023-05-12T03:53:53;98204.09;;;11.25;100.00
70815;BME280;58428;49.478;10.986;2023-05-12T03:59:04;98198.00;;;11.28;100.00
70815;BME280;58428;49.478;10.986;2023-05-12T04:01:30;98200.50;;;11.33;100.00
70815;BME280;58428;49.478;10.986;2023-05-12T04:06:41;98199.03;;;11.35;100.00
70815;BME280;58428;49.478;10.986;2023-05-12T04:09:07;98203.44;;;11.39;100.00
70815;BME280;58428;49.478;10.986;2023-05-12T04:11:32;98199.63;;;11.40;100.00
70815;BME280;58428;49.478;10.986;2023-05-12T04:13:58;98200.06;;;11.42;100.00
70815;BME280;58428;49.478;10.986;2023-05-12T04:16:23;98210.59;;;11.44;100.00
70815;BME280;58428;49.478;10.986;2023-05-12T04:18:49;98207.78;;;11.52;100.00
70815;BME280;58428;49.478;10.986;2023-05-12T04:21:14;98212.88;;;11.54;100.00
70815;BME280;58428;49.478;10.986;2023-05-12T04:23:40;98209.94;;;11.59;100.00
70815;BME280;58428;49.478;10.986;2023-05-12T04:26:05;98214.44;;;11.55;100.00
70815;BME280;58428;49.478;10.986;2023-05-12T04:28:31;98211.06;;;11.46;100.00
70815;BME280;58428;49.478;10.986;2023-05-12T04:31:01;98214.41;;;11.43;100.00
70815;BME280;58428;49.478;10.986;2023-05-12T04:33:27;98214.88;;;11.45;100.00
70815;BME280;58428;49.478;10.986;2023-05-12T04:35:55;98212.88;;;11.54;100.00
70815;BME280;58428;49.478;10.986;2023-05-12T04:38:21;98222.81;;;11.62;100.00
70815;BME280;58428;49.478;10.986;2023-05-12T04:40:46;98221.94;;;11.70;100.00
70815;BME280;58428;49.478;10.986;2023-05-12T04:43:11;98217.97;;;11.67;100.00
70815;BME280;58428;49.478;10.986;2023-05-12T04:45:37;98223.16;;;11.60;100.00
70815;BME280;58428;49.478;10.986;2023-05-12T04:48:02;98215.81;;;11.61;100.00
70815;BME280;58428;49.478;10.986;2023-05-12T04:50:28;98223.16;;;11.60;100.00
70815;BME280;58428;49.478;10.986;2023-05-12T04:52:53;98218.84;;;11.59;100.00
70815;BME280;58428;49.478;10.986;2023-05-12T04:55:18;98216.25;;;11.63;100.00
70815;BME280;58428;49.478;10.986;2023-05-12T04:57:44;98221.81;;;11.66;100.00
70815;BME280;58428;49.478;10.986;2023-05-12T05:00:10;98223.41;;;11.67;100.00
70815;BME280;58428;49.478;10.986;2023-05-12T05:02:35;98222.94;;;11.65;100.00
70815;BME280;58428;49.478;10.986;2023-05-12T05:05:01;98222.06;;;11.73;100.00
70815;BME280;58428;49.478;10.986;2023-05-12T05:07:26;98231.88;;;11.77;100.00
70815;BME280;58428;49.478;10.986;2023-05-12T05:09:52;98219.34;;;11.85;100.00
70815;BME280;58428;49.478;10.986;2023-05-12T05:12:18;98217.41;;;11.85;100.00
70815;BME280;58428;49.478;10.986;2023-05-12T05:14:43;98226.56;;;11.81;100.00
70815;BME280;58428;49.478;10.986;2023-05-12T05:17:10;98230.97;;;11.85;100.00
70815;BME280;58428;49.478;10.986;2023-05-12T05:19:36;98220.25;;;11.89;100.00
70815;BME280;58428;49.478;10.986;2023-05-12T05:22:02;98225.44;;;11.94;100.00
70815;BME280;58428;49.478;10.986;2023-05-12T05:24:29;98223.28;;;11.99;100.00
70815;BME280;58428;49.478;10.986;2023-05-12T05:26:54;98222.06;;;12.09;100.00
70815;BME280;58428;49.478;10.986;2023-05-12T05:29:19;98227.47;;;12.09;100.00
70815;BME280;58428;49.478;10.986;2023-05-12T05:31:45;98234.81;;;12.20;100.00
70815;BME280;58428;49.478;10.986;2023-05-12T05:34:10;98226.00;;;12.23;100.00
70815;BME280;58428;49.478;10.986;2023-05-12T05:36:36;98238.41;;;12.36;100.00
70815;BME280;58428;49.478;10.986;2023-05-12T05:39:01;98231.16;;;12.51;100.00
70815;BME280;58428;49.478;10.986;2023-05-12T05:41:26;98229.34;;;12.55;100.00
70815;BME280;58428;49.478;10.986;2023-05-12T05:43:52;98239.59;;;12.62;100.00
70815;BME280;58428;49.478;10.986;2023-05-12T05:46:17;98236.50;;;12.75;100.00
70815;BME280;58428;49.478;10.986;2023-05-12T05:48:43;98234.72;;;12.91;100.00
70815;BME280;58428;49.478;10.986;2023-05-12T05:51:08;98232.44;;;12.93;100.00
70815;BME280;58428;49.478;10.986;2023-05-12T05:53:35;98236.50;;;12.99;100.00
70815;BME280;58428;49.478;10.986;2023-05-12T05:56:01;98241.06;;;13.10;100.00
70815;BME280;58428;49.478;10.986;2023-05-12T05:58:27;98238.78;;;13.12;100.00
70815;BME280;58428;49.478;10.986;2023-05-12T06:00:53;98240.50;;;13.17;100.00
70815;BME280;58428;49.478;10.986;2023-05-12T06:03:18;98249.03;;;13.03;100.00
70815;BME280;58428;49.478;10.986;2023-05-12T06:05:44;98246.66;;;13.02;100.00
70815;BME280;58428;49.478;10.986;2023-05-12T06:08:10;98242.09;;;13.06;100.00
70815;BME280;58428;49.478;10.986;2023-05-12T06:10:37;98246.88;;;13.09;100.00
70815;BME280;58428;49.478;10.986;2023-05-12T06:13:03;98253.56;;;12.99;100.00
70815;BME280;58428;49.478;10.986;2023-05-12T06:15:28;98248.25;;;13.03;100.00
70815;BME280;58428;49.478;10.986;2023-05-12T06:17:54;98256.03;;;13.04;100.00
70815;BME280;58428;49.478;10.986;2023-05-12T06:20:19;98252.75;;;13.11;100.00
70815;BME280;58428;49.478;10.986;2023-05-12T06:22:47;98257.81;;;13.12;100.00
70815;BME280;58428;49.478;10.986;2023-05-12T06:25:12;98258.63;;;13.13;100.00
70815;BME280;58428;49.478;10.986;2023-05-12T06:27:38;98263.06;;;13.05;100.00
70815;BME280;58428;49.478;10.986;2023-05-12T06:30:04;98267.00;;;13.08;100.00
70815;BME280;58428;49.478;10.986;2023-05-12T06:32:30;98258.06;;;13.07;100.00
70815;BME280;58428;49.478;10.986;2023-05-12T06:34:55;98265.22;;;13.00;100.00
70815;BME280;58428;49.478;10.986;2023-05-12T06:37:21;98268.09;;;12.91;100.00
70815;BME280;58428;49.478;10.986;2023-05-12T06:39:48;98269.66;;;12.92;100.00
70815;BME280;58428;49.478;10.986;2023-05-12T06:42:13;98271.44;;;13.00;100.00
70815;BME280;58428;49.478;10.986;2023-05-12T06:44:39;98267.78;;;13.08;100.00
70815;BME280;58428;49.478;10.986;2023-05-12T06:47:08;98272.53;;;13.11;100.00
70815;BME280;58428;49.478;10.986;2023-05-12T06:49:33;98274.66;;;13.18;100.00
70815;BME280;58428;49.478;10.986;2023-05-12T06:52:03;98272.31;;;13.16;100.00
70815;BME280;58428;49.478;10.986;2023-05-12T06:54:29;98273.38;;;13.27;100.00
70815;BME280;58428;49.478;10.986;2023-05-12T06:56:54;98273.13;;;13.32;100.00
70815;BME280;58428;49.478;10.986;2023-05-12T06:59:20;98270.50;;;13.35;100.00
70815;BME280;58428;49.478;10.986;2023-05-12T07:01:45;98271.31;;;13.36;100.00
70815;BME280;58428;49.478;10.986;2023-05-12T07:04:11;98282.91;;;13.48;100.00
70815;BME280;58428;49.478;10.986;2023-05-12T07:06:36;98276.50;;;13.56;100.00
70815;BME280;58428;49.478;10.986;2023-05-12T07:09:02;98280.03;;;13.72;100.00
70815;BME280;58428;49.478;10.986;2023-05-12T07:11:28;98284.19;;;13.81;100.00
70815;BME280;58428;49.478;10.986;2023-05-12T07:13:53;98281.38;;;13.93;100.00
70815;BME280;58428;49.478;10.986;2023-05-12T07:16:18;98284.38;;;13.88;100.00
70815;BME280;58428;49.478;10.986;2023-05-12T07:18:44;98279.38;;;13.90;100.00
70815;BME280;58428;49.478;10.986;2023-05-12T07:21:10;98281.91;;;13.98;100.00
70815;BME280;58428;49.478;10.986;2023-05-12T07:23:36;98277.34;;;13.87;100.00
70815;BME280;58428;49.478;10.986;2023-05-12T07:26:02;98276.47;;;13.83;100.00
70815;BME280;58428;49.478;10.986;2023-05-12T07:28:32;98281.47;;;13.97;100.00
70815;BME280;58428;49.478;10.986;2023-05-12T07:31:04;98284.28;;;14.00;100.00
70815;BME280;58428;49.478;10.986;2023-05-12T07:33:30;98276.94;;;14.00;100.00
70815;BME280;58428;49.478;10.986;2023-05-12T07:35:55;98283.53;;;14.15;100.00
70815;BME280;58428;49.478;10.986;2023-05-12T07:38:22;98283.06;;;14.28;100.00
70815;BME280;58428;49.478;10.986;2023-05-12T07:40:48;98286.06;;;14.38;100.00
70815;BME280;58428;49.478;10.986;2023-05-12T07:43:13;98279.31;;;14.48;100.00
70815;BME280;58428;49.478;10.986;2023-05-12T07:45:43;98286.91;;;14.58;100.00
70815;BME280;58428;49.478;10.986;2023-05-12T07:48:09;98286.28;;;14.64;100.00
70815;BME280;58428;49.478;10.986;2023-05-12T07:50:35;98288.00;;;14.72;100.00
70815;BME280;58428;49.478;10.986;2023-05-12T07:53:01;98289.00;;;14.64;100.00
70815;BME280;58428;49.478;10.986;2023-05-12T07:55:26;98290.59;;;14.65;100.00
70815;BME280;58428;49.478;10.986;2023-05-12T07:57:51;98284.81;;;14.51;100.00
70815;BME280;58428;49.478;10.986;2023-05-12T08:00:17;98293.81;;;14.71;100.00
70815;BME280;58428;49.478;10.986;2023-05-12T08:02:42;98289.41;;;14.81;100.00
70815;BME280;58428;49.478;10.986;2023-05-12T08:05:09;98290.69;;;14.87;100.00
70815;BME280;58428;49.478;10.986;2023-05-12T08:07:37;98295.81;;;15.07;100.00
70815;BME280;58428;49.478;10.986;2023-05-12T08:10:06;98294.50;;;15.36;100.00
70815;BME280;58428;49.478;10.986;2023-05-12T08:12:32;98297.16;;;15.32;100.00
70815;BME280;58428;49.478;10.986;2023-05-12T08:14:59;98291.69;;;15.32;100.00
70815;BME280;58428;49.478;10.986;2023-05-12T08:17:24;98292.47;;;15.33;100.00
70815;BME280;58428;49.478;10.986;2023-05-12T08:19:50;98284.81;;;15.38;100.00
70815;BME280;58428;49.478;10.986;2023-05-12T08:22:15;98297.88;;;15.29;100.00
70815;BME280;58428;49.478;10.986;2023-05-12T08:24:41;98298.88;;;15.21;100.00
70815;BME280;58428;49.478;10.986;2023-05-12T08:27:06;98295.94;;;15.30;100.00
70815;BME280;58428;49.478;10.986;2023-05-12T08:29:31;98304.97;;;15.34;100.00
70815;BME280;58428;49.478;10.986;2023-05-12T08:31:57;98308.13;;;15.36;100.00
70815;BME280;58428;49.478;10.986;2023-05-12T08:34:25;98311.34;;;15.22;100.00
70815;BME280;58428;49.478;10.986;2023-05-12T08:36:51;98301.03;;;15.31;100.00
70815;BME280;58428;49.478;10.986;2023-05-12T08:39:17;98308.56;;;15.38;100.00
70815;BME280;58428;49.478;10.986;2023-05-12T08:44:25;98310.94;;;15.39;100.00
70815;BME280;58428;49.478;10.986;2023-05-12T08:46:53;98310.19;;;15.61;100.00
70815;BME280;58428;49.478;10.986;2023-05-12T08:49:20;98311.31;;;15.79;100.00
70815;BME280;58428;49.478;10.986;2023-05-12T08:51:49;98310.47;;;15.75;100.00
70815;BME280;58428;49.478;10.986;2023-05-12T08:54:17;98314.72;;;15.94;100.00
70815;BME280;58428;49.478;10.986;2023-05-12T08:56:45;98318.94;;;16.11;100.00
70815;BME280;58428;49.478;10.986;2023-05-12T08:59:12;98311.72;;;15.99;100.00
70815;BME280;58428;49.478;10.986;2023-05-12T09:01:38;98317.47;;;15.94;100.00
70815;BME280;58428;49.478;10.986;2023-05-12T09:04:07;98314.47;;;15.81;100.00
70815;BME280;58428;49.478;10.986;2023-05-12T09:06:32;98324.47;;;15.73;100.00
70815;BME280;58428;49.478;10.986;2023-05-12T09:08:58;98317.94;;;15.59;100.00
70815;BME280;58428;49.478;10.986;2023-05-12T09:11:24;98316.09;;;15.63;100.00
70815;BME280;58428;49.478;10.986;2023-05-12T09:14:01;98324.28;;;15.85;100.00
70815;BME280;58428;49.478;10.986;2023-05-12T09:16:38;98323.91;;;16.05;100.00
70815;BME280;58428;49.478;10.986;2023-05-12T09:19:05;98321.28;;;16.31;100.00
70815;BME280;58428;49.478;10.986;2023-05-12T09:21:30;98322.22;;;16.64;100.00
70815;BME280;58428;49.478;10.986;2023-05-12T09:23:57;98325.53;;;16.76;100.00
70815;BME280;58428;49.478;10.986;2023-05-12T09:26:25;98326.81;;;16.82;100.00
70815;BME280;58428;49.478;10.986;2023-05-12T09:28:54;98331.03;;;16.80;100.00
70815;BME280;58428;49.478;10.986;2023-05-12T09:31:22;98319.75;;;16.56;100.00
70815;BME280;58428;49.478;10.986;2023-05-12T09:33:48;98331.16;;;16.39;100.00
70815;BME280;58428;49.478;10.986;2023-05-12T09:36:22;98332.44;;;16.22;100.00
70815;BME280;58428;49.478;10.986;2023-05-12T09:39:01;98335.34;;;16.33;100.00
70815;BME280;58428;49.478;10.986;2023-05-12T09:41:33;98331.50;;;16.37;100.00
70815;BME280;58428;49.478;10.986;2023-05-12T09:44:00;98322.72;;;16.47;100.00
70815;BME280;58428;49.478;10.986;2023-05-12T09:46:26;98329.13;;;16.80;100.00
70815;BME280;58428;49.478;10.986;2023-05-12T09:48:55;98325.59;;;17.09;100.00
70815;BME280;58428;49.478;10.986;2023-05-12T09:51:21;98322.66;;;17.46;100.00
70815;BME280;58428;49.478;10.986;2023-05-12T09:53:47;98317.88;;;17.72;100.00
70815;BME280;58428;49.478;10.986;2023-05-12T09:56:13;98321.16;;;17.88;100.00
70815;BME280;58428;49.478;10.986;2023-05-12T09:58:46;98314.13;;;18.20;100.00
70815;BME280;58428;49.478;10.986;2023-05-12T10:01:14;98321.00;;;18.46;100.00
70815;BME280;58428;49.478;10.986;2023-05-12T10:03:42;98319.63;;;18.70;100.00
70815;BME280;58428;49.478;10.986;2023-05-12T10:06:13;98313.78;;;18.28;100.00
70815;BME280;58428;49.478;10.986;2023-05-12T10:08:45;98323.63;;;18.36;100.00
70815;BME280;58428;49.478;10.986;2023-05-12T10:11:13;98319.84;;;18.47;100.00
70815;BME280;58428;49.478;10.986;2023-05-12T10:13:39;98308.13;;;18.54;100.00
70815;BME280;58428;49.478;10.986;2023-05-12T10:16:05;98313.81;;;18.78;100.00
70815;BME280;58428;49.478;10.986;2023-05-12T10:18:32;98309.25;;;18.96;100.00
70815;BME280;58428;49.478;10.986;2023-05-12T10:20:59;98303.28;;;18.83;100.00
70815;BME280;58428;49.478;10.986;2023-05-12T10:23:26;98304.94;;;18.95;100.00
70815;BME280;58428;49.478;10.986;2023-05-12T10:25:53;98312.59;;;18.72;100.00
70815;BME280;58428;49.478;10.986;2023-05-12T10:28:23;98313.16;;;18.45;100.00
70815;BME280;58428;49.478;10.986;2023-05-12T10:30:50;98309.00;;;18.18;100.00
70815;BME280;58428;49.478;10.986;2023-05-12T10:33:16;98317.41;;;18.03;100.00
70815;BME280;58428;49.478;10.986;2023-05-12T10:35:42;98307.88;;;17.87;100.00
70815;BME280;58428;49.478;10.986;2023-05-12T10:38:16;98319.31;;;17.63;100.00
70815;BME280;58428;49.478;10.986;2023-05-12T10:40:59;98314.50;;;17.21;100.00
70815;BME280;58428;49.478;10.986;2023-05-12T10:43:27;98318.88;;;17.03;100.00
70815;BME280;58428;49.478;10.986;2023-05-12T10:46:17;98319.09;;;17.17;100.00
70815;BME280;58428;49.478;10.986;2023-05-12T10:49:02;98318.81;;;16.96;100.00
70815;BME280;58428;49.478;10.986;2023-05-12T10:51:33;98321.47;;;16.93;100.00
70815;BME280;58428;49.478;10.986;2023-05-12T10:54:06;98326.88;;;16.89;100.00
70815;BME280;58428;49.478;10.986;2023-05-12T10:59:31;98332.13;;;17.01;100.00
70815;BME280;58428;49.478;10.986;2023-05-12T11:02:04;98332.56;;;17.03;100.00
70815;BME280;58428;49.478;10.986;2023-05-12T11:04:52;98328.63;;;17.00;100.00
70815;BME280;58428;49.478;10.986;2023-05-12T11:07:30;98333.44;;;17.10;100.00
70815;BME280;58428;49.478;10.986;2023-05-12T11:09:57;98331.09;;;17.34;100.00
70815;BME280;58428;49.478;10.986;2023-05-12T11:12:25;98330.44;;;17.44;100.00
70815;BME280;58428;49.478;10.986;2023-05-12T11:14:51;98333.28;;;17.55;100.00
70815;BME280;58428;49.478;10.986;2023-05-12T11:17:18;98327.94;;;17.65;100.00
70815;BME280;58428;49.478;10.986;2023-05-12T11:19:48;98337.78;;;17.69;100.00
70815;BME280;58428;49.478;10.986;2023-05-12T11:22:19;98323.13;;;17.55;100.00
70815;BME280;58428;49.478;10.986;2023-05-12T11:24:45;98335.53;;;17.46;100.00
70815;BME280;58428;49.478;10.986;2023-05-12T11:27:12;98334.06;;;17.23;100.00
70815;BME280;58428;49.478;10.986;2023-05-12T11:29:39;98342.06;;;17.38;100.00
70815;BME280;58428;49.478;10.986;2023-05-12T11:32:07;98341.22;;;17.34;100.00
70815;BME280;58428;49.478;10.986;2023-05-12T11:34:33;98344.94;;;17.48;100.00
70815;BME280;58428;49.478;10.986;2023-05-12T11:36:59;98346.72;;;17.67;100.00
70815;BME280;58428;49.478;10.986;2023-05-12T11:39:27;98345.13;;;17.95;100.00
70815;BME280;58428;49.478;10.986;2023-05-12T11:42:04;98339.53;;;18.20;100.00
70815;BME280;58428;49.478;10.986;2023-05-12T11:44:31;98339.16;;;18.22;100.00
70815;BME280;58428;49.478;10.986;2023-05-12T11:47:10;98342.06;;;18.03;100.00
70815;BME280;58428;49.478;10.986;2023-05-12T11:49:52;98346.00;;;18.05;100.00
70815;BME280;58428;49.478;10.986;2023-05-12T11:52:21;98353.03;;;18.03;100.00
70815;BME280;58428;49.478;10.986;2023-05-12T11:54:57;98345.91;;;17.63;100.00
70815;BME280;58428;49.478;10.986;2023-05-12T11:57:31;98343.50;;;17.29;100.00
70815;BME280;58428;49.478;10.986;2023-05-12T12:02:22;98355.97;;;17.00;100.00
70815;BME280;58428;49.478;10.986;2023-05-12T12:04:48;98352.44;;;16.74;100.00
70815;BME280;58428;49.478;10.986;2023-05-12T12:07:13;98356.03;;;16.78;100.00
70815;BME280;58428;49.478;10.986;2023-05-12T12:09:39;98364.38;;;16.89;100.00
70815;BME280;58428;49.478;10.986;2023-05-12T12:12:06;98355.72;;;17.12;100.00
70815;BME280;58428;49.478;10.986;2023-05-12T12:14:33;98363.31;;;17.22;100.00
70815;BME280;58428;49.478;10.986;2023-05-12T12:17:01;98364.31;;;17.36;100.00
70815;BME280;58428;49.478;10.986;2023-05-12T12:19:27;98357.50;;;17.53;100.00
70815;BME280;58428;49.478;10.986;2023-05-12T12:21:53;98361.25;;;17.41;100.00
70815;BME280;58428;49.478;10.986;2023-05-12T12:24:22;98357.97;;;17.29;100.00
70815;BME280;58428;49.478;10.986;2023-05-12T12:26:48;98371.47;;;16.93;100.00
70815;BME280;58428;49.478;10.986;2023-05-12T12:29:16;98366.75;;;16.68;100.00
70815;BME280;58428;49.478;10.986;2023-05-12T12:31:41;98379.09;;;16.58;100.00
70815;BME280;58428;49.478;10.986;2023-05-12T12:34:09;98382.31;;;16.64;100.00
70815;BME280;58428;49.478;10.986;2023-05-12T12:36:34;98381.59;;;16.93;100.00
70815;BME280;58428;49.478;10.986;2023-05-12T12:39:05;98378.13;;;17.18;100.00
70815;BME280;58428;49.478;10.986;2023-05-12T12:41:31;98379.47;;;17.31;100.00
70815;BME280;58428;49.478;10.986;2023-05-12T12:43:57;98383.28;;;17.52;100.00
70815;BME280;58428;49.478;10.986;2023-05-12T12:46:22;98374.59;;;17.75;100.00
70815;BME280;58428;49.478;10.986;2023-05-12T12:48:47;98380.28;;;17.93;100.00
70815;BME280;58428;49.478;10.986;2023-05-12T12:51:13;98378.56;;;18.10;100.00
70815;BME280;58428;49.478;10.986;2023-05-12T12:53:39;98380.31;;;17.64;100.00
70815;BME280;58428;49.478;10.986;2023-05-12T12:56:07;98384.81;;;17.49;100.00